Crystal Symphony — C6MY5 — position and weather

sailwx.info

Track history (hours):
 
Tides and Currents Weather Stations Pressure Air Temp Water Temp Dewpoint Dewpoint Depression Visibility Wind Speed Wind Dir Waves Ship Positions

Crystal Symphony

Operator: Crystal Cruises

Last reported at 2018-Jun-18 09:00 UTC. Time now 2018-Jun-18 09:23 UTC.
Position N 49°54' W 125°03'.

Length 238 m; draft 8 m.

Type: Ship. MMSI: 309168000.

Date/timePositionNaut miles runAvg speedWind from/ knotsBaromVisibWave heightAir tempDewpointWater temp
2018-Jun-18 09:00N 49°54' W 125°03'612.1
2018-Jun-18 08:30N 49°50' W 124°57'612.0
2018-Jun-18 08:00N 49°46' W 124°50'611.9
2018-Jun-18 07:29N 49°41' W 124°43'612.0
2018-Jun-18 07:00N 49°37' W 124°37'612.1
2018-Jun-18 06:30N 49°32' W 124°32'1018.6
2018-Jun-18 06:00N 49°24' W 124°24'44293.0 330 / 121008.527.0 17.017.017.0
2018-Jun-18 05:59N 49°27' W 124°27'812.0
2018-Jun-18 05:21N 49°25' W 124°16'511.5
2018-Jun-18 04:55N 49°24' W 124°09'1411.4
2018-Jun-18 03:40N 49°21' W 123°47'411.5
2018-Jun-18 03:22N 49°21' W 123°42'411.9
2018-Jun-18 02:59N 49°20' W 123°35'612.1
2018-Jun-18 02:30N 49°19' W 123°26'712.6
2018-Jun-18 01:59N 49°19' W 123°16'511.3
2018-Jun-18 01:30N 49°19' W 123°08'1 3.0
2018-Jun-18 01:00N 49°17' W 123°06'0 0.0
2018-Jun-18 00:30N 49°17' W 123°06'0 0.0
2018-Jun-18 00:00N 49°17' W 123°06'0 0.0
2018-Jun-17 23:27N 49°17' W 123°06'0 0.0
2018-Jun-17 23:00N 49°17' W 123°06'0 0.0
2018-Jun-17 22:29N 49°17' W 123°06'0 0.0
2018-Jun-17 21:59N 49°17' W 123°06'0 0.0
2018-Jun-17 21:29N 49°17' W 123°06'0 0.0
2018-Jun-17 20:59N 49°17' W 123°06'0 0.0
2018-Jun-17 20:29N 49°17' W 123°06'0 0.0
2018-Jun-17 19:58N 49°17' W 123°06'0 0.0
2018-Jun-17 19:28N 49°17' W 123°06'0 0.0
2018-Jun-17 18:58N 49°17' W 123°06'0 0.0
2018-Jun-17 18:30N 49°17' W 123°06'0 0.0
2018-Jun-17 18:00N 49°17' W 123°06'0 0.0
2018-Jun-17 17:30N 49°17' W 123°06'0 0.0
2018-Jun-17 17:00N 49°17' W 123°06'0 0.0
2018-Jun-17 16:30N 49°17' W 123°06'0 0.0
2018-Jun-17 16:00N 49°17' W 123°06'0 0.0
2018-Jun-17 15:29N 49°17' W 123°06'0 0.0
2018-Jun-17 14:59N 49°17' W 123°06'0 0.0
2018-Jun-17 14:29N 49°17' W 123°06'0 0.0
2018-Jun-17 14:00N 49°17' W 123°06'2 3.2
2018-Jun-17 13:30N 49°19' W 123°08'611.5
2018-Jun-17 13:00N 49°18' W 123°17'24 9.9
2018-Jun-17 10:37N 49°20' W 123°53'1 9.6
2018-Jun-17 10:30N 49°21' W 123°54'710.3
2018-Jun-17 09:47N 49°23' W 124°05'410.3
2018-Jun-17 09:27N 49°24' W 124°10'5 9.5
2018-Jun-17 08:56N 49°25' W 124°17'510.4
2018-Jun-17 08:30N 49°27' W 124°24'511.0
2018-Jun-17 08:00N 49°31' W 124°30'511.0
2018-Jun-17 07:30N 49°35' W 124°35'611.1
2018-Jun-17 07:00N 49°39' W 124°41'510.7
2018-Jun-17 06:30N 49°43' W 124°47'510.3
2018-Jun-17 06:00N 49°46' W 124°53'510.0
2018-Jun-17 05:30N 49°50' W 124°58'510.4
2018-Jun-17 05:00N 49°54' W 125°04'610.9
2018-Jun-17 04:30N 49°58' W 125°10'510.9
2018-Jun-17 04:00N 50°02' W 125°14'612.8
2018-Jun-17 03:31N 50°07' W 125°20'814.1
2018-Jun-17 02:58N 50°15' W 125°23'9718.3
2018-Jun-16 21:41N 50°55' W 127°42'319.5
2018-Jun-16 21:30N 50°57' W 127°46'713.1
2018-Jun-16 21:00N 51°02' W 127°54'817.0
2018-Jun-16 20:30N 51°07' W 128°05'817.0
2018-Jun-16 20:00N 51°12' W 128°16'918.9
2018-Jun-16 19:30N 51°17' W 128°28'918.9
2018-Jun-16 19:00N 51°23' W 128°40'1019.1
2018-Jun-16 18:30N 51°28' W 128°53'918.6
2018-Jun-16 18:00N 51°34' W 129°05'918.5
2018-Jun-16 17:30N 51°39' W 129°18'918.6
2018-Jun-16 17:00N 51°44' W 129°29'919.0
2018-Jun-16 16:30N 51°51' W 129°41'1019.1
2018-Jun-16 16:00N 51°59' W 129°50'1019.5
2018-Jun-16 15:30N 52°07' W 129°57'1019.9
2018-Jun-16 15:00N 52°16' W 130°04'1019.9
2018-Jun-16 14:30N 52°25' W 130°12'1019.8
2018-Jun-16 14:00N 52°34' W 130°19'4520.2
2018-Jun-16 11:46N 53°14' W 130°53'1219.6
2018-Jun-16 11:10N 53°25' W 131°01'319.8
2018-Jun-16 11:00N 53°28' W 131°01'1019.4
2018-Jun-16 10:30N 53°38' W 131°01'1019.3
2018-Jun-16 10:00N 53°47' W 131°02'1019.5
2018-Jun-16 09:30N 53°57' W 131°02'1019.8
2018-Jun-16 09:00N 54°07' W 131°03'1020.4
2018-Jun-16 08:30N 54°17' W 131°06'1020.5
2018-Jun-16 08:00N 54°26' W 131°13'1019.5
2018-Jun-16 07:30N 54°35' W 131°21'1019.1
2018-Jun-16 06:59N 54°42' W 131°32'  
2018-Jun-13 11:26N 58°09' W 135°17'819.2
2018-Jun-13 11:00N 58°13' W 135°30'918.5
2018-Jun-13 10:30N 58°18' W 135°45'917.0
2018-Jun-13 10:00N 58°20' W 136°01'  
2018-Jun-09 06:23N 58°18' W 136°17'819.7
2018-Jun-09 06:00N 58°20' W 136°03'1019.6
2018-Jun-09 05:30N 58°18' W 135°45'  
Track history (hours):
 
Tides and Currents Weather Stations Pressure Air Temp Water Temp Dewpoint Dewpoint Depression Visibility Wind Speed Wind Dir Waves Ship Positions

Crystal Symphony

Operator: Crystal Cruises

Last reported at 2018-Jun-18 09:00 UTC. Time now 2018-Jun-18 09:23 UTC.
Position N 49°54' W 125°03'.

Length 238 m; draft 8 m.

Type: Ship. MMSI: 309168000.

Date/timePositionNaut miles runAvg speedWind from/ knotsBaromVisibWave heightAir tempDewpointWater temp
2018-Jun-18 09:00N 49°54' W 125°03'612.1
2018-Jun-18 08:30N 49°50' W 124°57'612.0
2018-Jun-18 08:00N 49°46' W 124°50'611.9
2018-Jun-18 07:29N 49°41' W 124°43'612.0
2018-Jun-18 07:00N 49°37' W 124°37'612.1
2018-Jun-18 06:30N 49°32' W 124°32'1018.6
2018-Jun-18 06:00N 49°24' W 124°24'44293.0 330 / 121008.527.0 17.017.017.0
2018-Jun-18 05:59N 49°27' W 124°27'812.0
2018-Jun-18 05:21N 49°25' W 124°16'511.5
2018-Jun-18 04:55N 49°24' W 124°09'1411.4
2018-Jun-18 03:40N 49°21' W 123°47'411.5
2018-Jun-18 03:22N 49°21' W 123°42'411.9
2018-Jun-18 02:59N 49°20' W 123°35'612.1
2018-Jun-18 02:30N 49°19' W 123°26'712.6
2018-Jun-18 01:59N 49°19' W 123°16'511.3
2018-Jun-18 01:30N 49°19' W 123°08'1 3.0
2018-Jun-18 01:00N 49°17' W 123°06'0 0.0
2018-Jun-18 00:30N 49°17' W 123°06'0 0.0
2018-Jun-18 00:00N 49°17' W 123°06'0 0.0
2018-Jun-17 23:27N 49°17' W 123°06'0 0.0
2018-Jun-17 23:00N 49°17' W 123°06'0 0.0
2018-Jun-17 22:29N 49°17' W 123°06'0 0.0
2018-Jun-17 21:59N 49°17' W 123°06'0 0.0
2018-Jun-17 21:29N 49°17' W 123°06'0 0.0
2018-Jun-17 20:59N 49°17' W 123°06'0 0.0
2018-Jun-17 20:29N 49°17' W 123°06'0 0.0
2018-Jun-17 19:58N 49°17' W 123°06'0 0.0
2018-Jun-17 19:28N 49°17' W 123°06'0 0.0
2018-Jun-17 18:58N 49°17' W 123°06'0 0.0
2018-Jun-17 18:30N 49°17' W 123°06'0 0.0
2018-Jun-17 18:00N 49°17' W 123°06'0 0.0
2018-Jun-17 17:30N 49°17' W 123°06'0 0.0
2018-Jun-17 17:00N 49°17' W 123°06'0 0.0
2018-Jun-17 16:30N 49°17' W 123°06'0 0.0
2018-Jun-17 16:00N 49°17' W 123°06'0 0.0
2018-Jun-17 15:29N 49°17' W 123°06'0 0.0
2018-Jun-17 14:59N 49°17' W 123°06'0 0.0
2018-Jun-17 14:29N 49°17' W 123°06'0 0.0
2018-Jun-17 14:00N 49°17' W 123°06'2 3.2
2018-Jun-17 13:30N 49°19' W 123°08'611.5
2018-Jun-17 13:00N 49°18' W 123°17'24 9.9
2018-Jun-17 10:37N 49°20' W 123°53'1 9.6
2018-Jun-17 10:30N 49°21' W 123°54'710.3
2018-Jun-17 09:47N 49°23' W 124°05'410.3
2018-Jun-17 09:27N 49°24' W 124°10'5 9.5
2018-Jun-17 08:56N 49°25' W 124°17'510.4
2018-Jun-17 08:30N 49°27' W 124°24'511.0
2018-Jun-17 08:00N 49°31' W 124°30'511.0
2018-Jun-17 07:30N 49°35' W 124°35'611.1
2018-Jun-17 07:00N 49°39' W 124°41'510.7
2018-Jun-17 06:30N 49°43' W 124°47'510.3
2018-Jun-17 06:00N 49°46' W 124°53'510.0
2018-Jun-17 05:30N 49°50' W 124°58'510.4
2018-Jun-17 05:00N 49°54' W 125°04'610.9
2018-Jun-17 04:30N 49°58' W 125°10'510.9
2018-Jun-17 04:00N 50°02' W 125°14'612.8
2018-Jun-17 03:31N 50°07' W 125°20'814.1
2018-Jun-17 02:58N 50°15' W 125°23'9718.3
2018-Jun-16 21:41N 50°55' W 127°42'319.5
2018-Jun-16 21:30N 50°57' W 127°46'713.1
2018-Jun-16 21:00N 51°02' W 127°54'817.0
2018-Jun-16 20:30N 51°07' W 128°05'817.0
2018-Jun-16 20:00N 51°12' W 128°16'918.9
2018-Jun-16 19:30N 51°17' W 128°28'918.9
2018-Jun-16 19:00N 51°23' W 128°40'1019.1
2018-Jun-16 18:30N 51°28' W 128°53'918.6
2018-Jun-16 18:00N 51°34' W 129°05'918.5
2018-Jun-16 17:30N 51°39' W 129°18'918.6
2018-Jun-16 17:00N 51°44' W 129°29'919.0
2018-Jun-16 16:30N 51°51' W 129°41'1019.1
2018-Jun-16 16:00N 51°59' W 129°50'1019.5
2018-Jun-16 15:30N 52°07' W 129°57'1019.9
2018-Jun-16 15:00N 52°16' W 130°04'1019.9
2018-Jun-16 14:30N 52°25' W 130°12'1019.8
2018-Jun-16 14:00N 52°34' W 130°19'4520.2
2018-Jun-16 11:46N 53°14' W 130°53'1219.6
2018-Jun-16 11:10N 53°25' W 131°01'319.8
2018-Jun-16 11:00N 53°28' W 131°01'1019.4
2018-Jun-16 10:30N 53°38' W 131°01'1019.3
2018-Jun-16 10:00N 53°47' W 131°02'1019.5
2018-Jun-16 09:30N 53°57' W 131°02'1019.8
2018-Jun-16 09:00N 54°07' W 131°03'1020.4
2018-Jun-16 08:30N 54°17' W 131°06'1020.5
2018-Jun-16 08:00N 54°26' W 131°13'1019.5
2018-Jun-16 07:30N 54°35' W 131°21'1019.1
2018-Jun-16 06:59N 54°42' W 131°32'  
2018-Jun-13 11:26N 58°09' W 135°17'819.2
2018-Jun-13 11:00N 58°13' W 135°30'918.5
2018-Jun-13 10:30N 58°18' W 135°45'917.0
2018-Jun-13 10:00N 58°20' W 136°01'  
2018-Jun-09 06:23N 58°18' W 136°17'819.7
2018-Jun-09 06:00N 58°20' W 136°03'1019.6
2018-Jun-09 05:30N 58°18' W 135°45'  

Dump ship's entire track history